Time;durP1;ratioP1;P1;durP2;ratioP2;P2;SDS_P1;SDS_P2;PMS_P1;PMS_P2;Temp;Humidity;BMP_temperature;BMP_pressure;BME280_temperature;BME280_humidity;BME280_pressure;Samples;Min_cycle;Max_cycle;Signal;HPM_P1;HPM_P2
2022/09/13 00:01:42;;;;;;;16.08;14.35;;;16.80;99.90;;;;;;4834189;29;20053;-68
2022/09/13 00:04:07;;;;;;;16.17;14.10;;;17.00;99.90;;;;;;4840357;29;20080;-69
2022/09/13 00:06:34;;;;;;;15.80;13.05;;;17.00;99.90;;;;;;4840264;29;20133;-68
2022/09/13 00:09:01;;;;;;;16.65;13.98;;;16.90;99.90;;;;;;4842858;29;20073;-68
2022/09/13 00:11:30;;;;;;;13.75;12.35;;;16.90;99.90;;;;;;4825239;29;20090;-69
2022/09/13 00:13:56;;;;;;;14.55;12.70;;;17.00;99.90;;;;;;4840924;29;20038;-68
2022/09/13 00:16:25;;;;;;;15.32;13.45;;;16.90;99.90;;;;;;4841168;29;20478;-68
2022/09/13 00:18:51;;;;;;;16.20;13.52;;;17.00;99.90;;;;;;4825249;29;20106;-68
2022/09/13 00:21:19;;;;;;;14.82;13.23;;;17.00;99.90;;;;;;4839651;29;20056;-68
2022/09/13 00:23:47;;;;;;;14.77;12.70;;;17.00;99.90;;;;;;4841758;29;20053;-68
2022/09/13 00:26:16;;;;;;;15.98;14.30;;;17.00;99.90;;;;;;4840769;29;20049;-68
2022/09/13 00:28:44;;;;;;;16.80;14.38;;;17.00;99.90;;;;;;4842666;29;20050;-67
2022/09/13 00:31:10;;;;;;;18.10;15.68;;;17.00;99.90;;;;;;4841551;29;20049;-68
2022/09/13 00:33:36;;;;;;;17.27;14.93;;;17.00;99.90;;;;;;4839823;29;20158;-68
2022/09/13 00:36:06;;;;;;;17.60;13.70;;;17.00;99.90;;;;;;4839115;29;20046;-68
2022/09/13 00:38:34;;;;;;;16.27;13.30;;;17.00;99.90;;;;;;4838081;29;20498;-68
2022/09/13 00:41:01;;;;;;;14.48;12.93;;;17.00;99.90;;;;;;4840872;29;20495;-68
2022/09/13 00:43:46;;;;;;;17.88;14.38;;;17.00;99.90;;;;;;4837979;29;20530;-68
2022/09/13 00:46:39;;;;;;;17.48;15.40;;;17.00;99.90;;;;;;4839526;29;20046;-68
2022/09/13 00:49:18;;;;;;;18.73;15.55;;;17.00;99.90;;;;;;4840870;29;20060;-69
2022/09/13 00:51:57;;;;;;;19.70;15.45;;;17.00;99.90;;;;;;4833047;29;20061;-69
2022/09/13 00:54:28;;;;;;;17.98;15.02;;;17.00;99.90;;;;;;4809578;29;20069;-69
2022/09/13 00:56:58;;;;;;;20.58;16.60;;;17.00;99.90;;;;;;4840570;29;20046;-67
2022/09/13 00:59:32;;;;;;;18.08;14.98;;;17.00;99.90;;;;;;4839687;29;20053;-68
2022/09/13 01:01:59;;;;;;;19.60;15.52;;;17.00;99.90;;;;;;4840256;29;20091;-68
2022/09/13 01:04:27;;;;;;;18.92;14.93;;;17.00;99.90;;;;;;4842139;29;20057;-68
2022/09/13 01:06:57;;;;;;;17.60;14.52;;;16.90;99.90;;;;;;4839784;29;20129;-67
2022/09/13 01:09:24;;;;;;;18.73;14.73;;;16.90;99.90;;;;;;4840784;29;20519;-67
2022/09/13 01:12:19;;;;;;;18.13;15.93;;;16.90;99.90;;;;;;4841101;29;20113;-69
2022/09/13 01:14:46;;;;;;;18.02;14.68;;;16.90;99.90;;;;;;4825753;29;20076;-68
2022/09/13 01:17:12;;;;;;;17.60;15.80;;;16.90;99.90;;;;;;4843077;29;20045;-68
2022/09/13 01:19:37;;;;;;;20.75;17.02;;;16.90;99.90;;;;;;4845323;29;20479;-69
2022/09/13 01:22:12;;;;;;;17.88;15.80;;;16.80;99.90;;;;;;4844314;29;20042;-68
2022/09/13 01:25:10;;;;;;;20.38;15.70;;;16.90;99.90;;;;;;4825129;29;20056;-67
2022/09/13 01:27:38;;;;;;;22.67;17.10;;;16.90;99.90;;;;;;4840040;29;20149;-69
2022/09/13 01:30:03;;;;;;;22.17;17.83;;;16.90;99.90;;;;;;4844879;29;20050;-69
2022/09/13 01:32:47;;;;;;;16.38;14.15;;;16.90;99.90;;;;;;4843724;29;20391;-68
2022/09/13 01:35:22;;;;;;;23.08;17.40;;;16.90;99.90;;;;;;4842175;29;20403;-67
2022/09/13 01:38:06;;;;;;;23.75;17.70;;;16.80;99.90;;;;;;4844063;29;20053;-69
2022/09/13 01:40:59;;;;;;;20.65;16.35;;;16.80;99.90;;;;;;4843210;29;20050;-69
2022/09/13 01:43:43;;;;;;;22.48;17.33;;;16.80;99.90;;;;;;4812522;29;20061;-68
2022/09/13 01:46:21;;;;;;;21.65;17.67;;;16.80;99.90;;;;;;4827276;29;20045;-69
2022/09/13 01:49:10;;;;;;;19.80;14.82;;;16.80;99.90;;;;;;4843710;29;20050;-67
2022/09/13 01:51:45;;;;;;;18.73;15.38;;;16.80;99.90;;;;;;4843154;29;20101;-67
2022/09/13 01:54:35;;;;;;;22.13;18.48;;;16.80;99.90;;;;;;4844382;29;20095;-68
2022/09/13 01:57:30;;;;;;;22.88;16.50;;;16.80;99.90;;;;;;4842004;29;20113;-68
2022/09/13 02:00:01;;;;;;;19.85;17.25;;;16.80;99.90;;;;;;4826407;29;20395;-68
2022/09/13 02:02:46;;;;;;;21.70;17.37;;;16.80;99.90;;;;;;4843657;29;20085;-69
2022/09/13 02:05:32;;;;;;;20.40;16.42;;;16.80;99.90;;;;;;4843126;29;20049;-67
2022/09/13 02:08:12;;;;;;;23.70;17.65;;;16.70;99.90;;;;;;4825893;29;21681;-67
2022/09/13 02:10:43;;;;;;;22.67;19.20;;;16.70;99.90;;;;;;4843447;29;20106;-68
2022/09/13 02:13:23;;;;;;;21.13;17.55;;;16.70;99.90;;;;;;4842248;29;20507;-68
2022/09/13 02:15:56;;;;;;;21.73;18.42;;;16.70;99.90;;;;;;4838815;29;20045;-69
2022/09/13 02:18:36;;;;;;;21.40;16.88;;;16.80;99.90;;;;;;4842794;29;20094;-67
2022/09/13 02:21:20;;;;;;;22.67;18.90;;;16.70;99.90;;;;;;4843521;29;20065;-69
2022/09/13 02:23:50;;;;;;;24.02;18.48;;;16.70;99.90;;;;;;4843568;29;20049;-69
2022/09/13 02:26:20;;;;;;;25.25;18.83;;;16.70;99.90;;;;;;4843772;29;20058;-68
2022/09/13 02:28:54;;;;;;;25.52;20.60;;;16.70;99.90;;;;;;4842985;29;20094;-70
2022/09/13 02:31:29;;;;;;;26.80;21.55;;;16.70;99.90;;;;;;4843509;29;20056;-69
2022/09/13 02:34:02;;;;;;;27.23;20.58;;;16.70;99.90;;;;;;4842344;29;20081;-68
2022/09/13 02:36:31;;;;;;;22.00;17.85;;;16.70;99.90;;;;;;4825294;29;20041;-68
2022/09/13 02:39:05;;;;;;;26.40;19.20;;;16.70;99.90;;;;;;4842515;29;20102;-68
2022/09/13 02:41:43;;;;;;;27.23;21.27;;;16.70;99.90;;;;;;4830208;29;20050;-68
2022/09/13 02:44:24;;;;;;;24.67;19.45;;;16.70;99.90;;;;;;4838361;29;20129;-69
2022/09/13 02:47:05;;;;;;;24.50;19.38;;;16.80;99.90;;;;;;4840511;29;20125;-68
2022/09/13 02:49:50;;;;;;;31.92;20.67;;;16.80;99.90;;;;;;4842066;29;20073;-68
2022/09/13 02:52:43;;;;;;;24.73;20.65;;;16.80;99.90;;;;;;4842381;29;20050;-68
2022/09/13 02:55:43;;;;;;;23.65;18.60;;;16.80;99.90;;;;;;4842741;29;20495;-68
2022/09/13 02:58:25;;;;;;;22.48;19.05;;;16.80;99.90;;;;;;4837867;29;20050;-68
2022/09/13 03:00:51;;;;;;;26.10;20.27;;;16.80;99.90;;;;;;4837515;29;20060;-67
2022/09/13 03:03:16;;;;;;;25.98;19.63;;;16.90;99.90;;;;;;4842833;29;20041;-67
2022/09/13 03:05:42;;;;;;;24.00;19.65;;;16.80;99.90;;;;;;4842556;29;20179;-69
2022/09/13 03:08:10;;;;;;;27.67;19.65;;;16.80;99.90;;;;;;4842953;29;20042;-67
2022/09/13 03:10:56;;;;;;;25.52;19.42;;;16.90;99.90;;;;;;4842239;29;20138;-68
2022/09/13 03:13:51;;;;;;;27.60;20.58;;;16.90;99.90;;;;;;4824646;29;20058;-67
2022/09/13 03:16:29;;;;;;;25.98;19.15;;;16.90;99.90;;;;;;4824364;29;20062;-68
2022/09/13 03:19:37;;;;;;;26.40;20.30;;;16.90;99.90;;;;;;4822735;29;20094;-69
2022/09/13 03:22:34;;;;;;;25.83;20.17;;;17.10;99.90;;;;;;4777120;30;20064;-68
2022/09/13 03:25:34;;;;;;;27.52;20.92;;;16.90;99.90;;;;;;4825069;29;20054;-69
2022/09/13 03:28:20;;;;;;;29.92;21.58;;;16.90;99.90;;;;;;4840302;29;20444;-69
2022/09/13 03:30:55;;;;;;;22.83;19.80;;;16.90;99.90;;;;;;4842099;29;20061;-67
2022/09/13 03:33:29;;;;;;;29.38;21.98;;;16.90;99.90;;;;;;4825414;29;20124;-68
2022/09/13 03:36:32;;;;;;;23.73;19.50;;;16.90;99.90;;;;;;4826153;29;20097;-69
2022/09/13 03:39:10;;;;;;;28.08;20.63;;;16.90;99.90;;;;;;4840721;29;20160;-69
2022/09/13 03:41:41;;;;;;;27.05;18.85;;;17.00;99.90;;;;;;4824602;29;20122;-68
2022/09/13 03:44:11;;;;;;;26.80;19.85;;;16.90;99.90;;;;;;4825415;29;20118;-67
2022/09/13 03:46:45;;;;;;;23.45;18.05;;;17.00;99.90;;;;;;4809120;29;20149;-67
2022/09/13 03:49:16;;;;;;;25.88;19.20;;;17.00;99.90;;;;;;4825214;29;20475;-68
2022/09/13 03:51:44;;;;;;;21.90;17.50;;;17.00;99.90;;;;;;4840841;29;20049;-69
2022/09/13 03:54:22;;;;;;;22.50;17.15;;;17.00;99.90;;;;;;4841797;29;20050;-68
2022/09/13 03:57:10;;;;;;;24.73;18.05;;;17.00;99.90;;;;;;4824010;29;20094;-69
2022/09/13 03:59:38;;;;;;;24.50;17.85;;;17.00;99.90;;;;;;4842801;29;20058;-70
2022/09/13 04:02:04;;;;;;;23.90;17.02;;;17.00;99.90;;;;;;4841538;29;20054;-68
2022/09/13 04:04:31;;;;;;;23.05;18.05;;;17.00;99.90;;;;;;4842040;29;20046;-69
2022/09/13 04:07:02;;;;;;;19.75;15.43;;;17.00;99.90;;;;;;4840541;29;20057;-69
2022/09/13 04:09:27;;;;;;;20.85;15.93;;;17.10;99.90;;;;;;4841324;29;20054;-69
2022/09/13 04:11:53;;;;;;;24.45;17.05;;;17.00;99.90;;;;;;4841244;29;20128;-69
2022/09/13 04:35:10;;;;;;;17.08;12.52;;;17.10;99.90;;;;;;4840065;29;20559;-68
2022/09/13 04:50:46;;;;;;;21.15;14.95;;;17.20;99.90;;;;;;4837513;29;20097;-70
2022/09/13 04:53:37;;;;;;;18.48;14.32;;;17.20;99.90;;;;;;4859347;29;20061;-66
2022/09/13 05:00:34;;;;;;;19.17;14.43;;;17.20;99.90;;;;;;4852362;29;20486;-68
2022/09/13 05:03:00;;;;;;;18.33;13.95;;;17.20;99.90;;;;;;4847904;29;20104;-68
2022/09/13 05:05:27;;;;;;;18.30;13.48;;;17.20;99.90;;;;;;4847448;29;20049;-67
2022/09/13 05:07:53;;;;;;;16.50;13.50;;;17.30;99.90;;;;;;4834436;29;20472;-68
2022/09/13 05:10:19;;;;;;;18.88;13.30;;;17.30;99.90;;;;;;4853116;29;20056;-68
2022/09/13 05:12:45;;;;;;;15.65;12.27;;;17.30;99.90;;;;;;4833785;29;20098;-68
2022/09/13 05:15:11;;;;;;;14.88;12.65;;;17.30;99.90;;;;;;4844417;29;20045;-68
2022/09/13 05:17:37;;;;;;;12.20;11.00;;;17.40;99.90;;;;;;4828837;29;20046;-66
2022/09/13 05:20:04;;;;;;;17.50;13.52;;;17.40;99.90;;;;;;4842894;29;20052;-69
2022/09/13 05:22:30;;;;;;;19.42;13.45;;;17.40;99.90;;;;;;4842458;29;20058;-68
2022/09/13 05:24:55;;;;;;;17.63;12.70;;;17.40;99.90;;;;;;4827793;29;20050;-68
2022/09/13 05:27:21;;;;;;;12.40;10.63;;;17.40;99.90;;;;;;4840782;29;20046;-71
2022/09/13 05:29:47;;;;;;;18.20;13.50;;;17.40;99.90;;;;;;4847284;29;20050;-68
2022/09/13 05:32:12;;;;;;;16.42;13.20;;;17.40;99.90;;;;;;4846192;29;20049;-69
2022/09/13 05:34:38;;;;;;;15.40;12.50;;;17.40;99.90;;;;;;4843007;29;20102;-69
2022/09/13 05:37:03;;;;;;;16.83;12.70;;;17.40;99.90;;;;;;4833660;29;20128;-68
2022/09/13 05:39:29;;;;;;;14.25;12.55;;;17.50;99.90;;;;;;4863582;29;20045;-70
2022/09/13 05:42:46;;;;;;;16.25;11.93;;;17.50;99.90;;;;;;4841640;29;20440;-68
2022/09/13 05:45:11;;;;;;;16.33;12.48;;;17.50;99.90;;;;;;4859276;29;20046;-69
2022/09/13 05:47:37;;;;;;;16.13;11.95;;;17.50;99.90;;;;;;4863270;29;20051;-69
2022/09/13 05:50:03;;;;;;;14.48;12.02;;;17.50;99.90;;;;;;4863214;29;20124;-69
2022/09/13 05:52:28;;;;;;;14.77;12.23;;;17.50;99.90;;;;;;4845906;29;20049;-67
2022/09/13 05:54:54;;;;;;;14.18;11.30;;;17.50;99.90;;;;;;4846548;29;20142;-69
2022/09/13 05:57:19;;;;;;;14.82;10.65;;;17.50;99.90;;;;;;4846466;29;20049;-69
2022/09/13 05:59:46;;;;;;;13.73;10.55;;;17.50;99.90;;;;;;4851300;29;20121;-67
2022/09/13 06:02:12;;;;;;;11.52;9.65;;;17.50;99.90;;;;;;4845004;29;20049;-68
2022/09/13 06:04:37;;;;;;;13.18;10.77;;;17.50;99.90;;;;;;4859190;29;20062;-69
2022/09/13 06:07:03;;;;;;;13.32;10.57;;;17.50;99.90;;;;;;4827305;29;20045;-69
2022/09/13 06:09:29;;;;;;;12.05;9.93;;;17.60;99.90;;;;;;4828083;29;20056;-69
2022/09/13 06:11:54;;;;;;;10.35;9.25;;;17.50;99.90;;;;;;4844136;29;20125;-69
2022/09/13 06:14:20;;;;;;;10.75;8.50;;;17.60;99.90;;;;;;4852055;29;20045;-68
2022/09/13 06:16:45;;;;;;;7.88;7.07;;;17.70;99.90;;;;;;4858408;29;20052;-69
2022/09/13 06:19:12;;;;;;;7.60;6.18;;;17.60;99.90;;;;;;4842083;29;20057;-69
2022/09/13 06:21:41;;;;;;;7.25;5.05;;;17.50;99.90;;;;;;4840576;29;20060;-69
2022/09/13 06:28:12;;;;;;;4.28;3.88;;;17.50;99.90;;;;;;4839347;29;20046;-69
2022/09/13 06:31:30;;;;;;;6.72;4.10;;;17.50;99.90;;;;;;4841107;29;20034;-70
2022/09/13 06:34:01;;;;;;;5.13;3.40;;;17.40;99.90;;;;;;4822948;29;20050;-70
2022/09/13 06:36:57;;;;;;;4.47;3.30;;;17.40;99.90;;;;;;4825546;29;20483;-70
2022/09/13 06:39:30;;;;;;;4.88;3.40;;;17.40;99.90;;;;;;4840184;29;20077;-69
2022/09/13 06:42:53;;;;;;;8.25;3.20;;;17.40;99.90;;;;;;4816556;29;20042;-69
2022/09/13 06:45:20;;;;;;;4.78;2.72;;;17.40;99.90;;;;;;4836820;29;20042;-70
2022/09/13 06:47:47;;;;;;;6.47;2.90;;;17.40;99.90;;;;;;4822861;29;20114;-71
2022/09/13 06:50:13;;;;;;;4.15;2.97;;;17.40;99.90;;;;;;4842867;29;20042;-71
2022/09/13 06:57:14;;;;;;;2.50;2.25;;;17.40;99.90;;;;;;4842713;29;20118;-69
2022/09/13 07:04:13;;;;;;;5.03;2.65;;;17.30;99.90;;;;;;4841658;29;20042;-70
2022/09/13 07:07:06;;;;;;;4.85;2.78;;;17.30;99.90;;;;;;4841135;29;20459;-70
2022/09/13 07:12:41;;;;;;;3.53;2.25;;;17.50;99.90;;;;;;4850890;29;20120;-70
2022/09/13 07:15:08;;;;;;;4.38;2.25;;;17.50;99.90;;;;;;4839707;29;20037;-70
2022/09/13 07:17:33;;;;;;;7.10;2.42;;;17.50;99.90;;;;;;4841782;29;20195;-70
2022/09/13 07:19:59;;;;;;;4.95;2.78;;;17.60;99.90;;;;;;4839303;29;20133;-71
2022/09/13 07:22:26;;;;;;;4.13;2.38;;;17.60;99.90;;;;;;4842392;29;20471;-71
2022/09/13 07:24:53;;;;;;;4.38;2.30;;;17.90;99.90;;;;;;4826611;29;20053;-69
2022/09/13 07:27:19;;;;;;;5.32;2.28;;;17.70;99.90;;;;;;4843023;29;20050;-71
2022/09/13 07:29:44;;;;;;;5.75;2.63;;;17.80;99.90;;;;;;4842984;29;20042;-70
2022/09/13 07:32:10;;;;;;;6.88;3.10;;;17.90;99.90;;;;;;4841617;29;20441;-69
2022/09/13 07:35:26;;;;;;;6.18;2.47;;;17.90;99.90;;;;;;4832745;29;20046;-69
2022/09/13 07:37:52;;;;;;;4.22;1.83;;;17.90;99.90;;;;;;4859947;29;20056;-70
2022/09/13 07:40:17;;;;;;;4.68;2.20;;;18.00;99.90;;;;;;4844943;29;20045;-70
2022/09/13 07:42:43;;;;;;;4.07;2.50;;;18.00;99.90;;;;;;4860924;29;20109;-69
2022/09/13 07:45:09;;;;;;;6.28;2.45;;;18.10;99.90;;;;;;4852698;29;20050;-69
2022/09/13 07:47:34;;;;;;;5.38;2.50;;;18.20;99.90;;;;;;4833896;29;20053;-68
2022/09/13 07:50:00;;;;;;;4.55;2.28;;;18.20;99.90;;;;;;4851675;29;20049;-69
2022/09/13 07:52:27;;;;;;;4.93;2.20;;;18.30;99.90;;;;;;4860372;29;20061;-71
2022/09/13 07:54:53;;;;;;;6.63;2.17;;;18.50;99.90;;;;;;4861212;29;20086;-70
2022/09/13 07:57:18;;;;;;;3.30;1.50;;;18.50;99.90;;;;;;4861021;29;20053;-70
2022/09/13 07:59:44;;;;;;;4.18;1.88;;;18.60;99.90;;;;;;4861030;29;20058;-70
2022/09/13 08:02:10;;;;;;;4.53;2.00;;;18.70;99.90;;;;;;4861311;29;20049;-69
2022/09/13 08:04:35;;;;;;;4.72;1.48;;;18.90;99.90;;;;;;4860797;29;20048;-69
2022/09/13 08:07:01;;;;;;;8.57;1.60;;;19.00;99.90;;;;;;4859396;29;20455;-69
2022/09/13 08:09:26;;;;;;;5.97;1.67;;;19.00;99.90;;;;;;4844185;29;20056;-69
2022/09/13 08:11:52;;;;;;;4.03;1.42;;;19.00;99.90;;;;;;4844083;29;20071;-69
2022/09/13 08:14:21;;;;;;;6.25;1.80;;;19.00;99.90;;;;;;4844312;29;20050;-68
2022/09/13 08:16:46;;;;;;;7.53;1.42;;;19.10;99.90;;;;;;4834456;29;20048;-69
2022/09/13 08:19:15;;;;;;;4.30;1.55;;;19.20;99.90;;;;;;4839168;29;20038;-70
2022/09/13 08:21:41;;;;;;;4.82;1.17;;;19.20;99.90;;;;;;4840817;29;20532;-69
2022/09/13 08:24:12;;;;;;;5.15;1.40;;;19.10;99.90;;;;;;4838225;29;20050;-69
2022/09/13 08:26:37;;;;;;;5.43;1.30;;;19.10;99.90;;;;;;4825512;29;20050;-70
2022/09/13 08:29:05;;;;;;;4.72;1.40;;;19.00;99.90;;;;;;4840928;29;20057;-69
2022/09/13 08:31:31;;;;;;;3.35;1.45;;;19.00;99.90;;;;;;4839053;29;20061;-70
2022/09/13 08:33:57;;;;;;;4.70;1.27;;;19.10;99.90;;;;;;4825172;29;20073;-70
2022/09/13 08:36:25;;;;;;;4.45;0.80;;;19.10;99.90;;;;;;4838542;29;20041;-69
2022/09/13 08:38:59;;;;;;;3.25;0.95;;;19.20;99.90;;;;;;4825757;29;20102;-70
2022/09/13 08:41:31;;;;;;;3.50;0.88;;;19.20;99.90;;;;;;4839301;29;20125;-71
2022/09/13 08:44:22;;;;;;;3.97;1.00;;;19.20;99.90;;;;;;4840572;29;20054;-71
2022/09/13 08:46:48;;;;;;;3.03;1.23;;;19.40;99.90;;;;;;4834346;29;20471;-70
2022/09/13 08:49:29;;;;;;;2.75;1.10;;;19.50;99.90;;;;;;4841284;29;20045;-70
2022/09/13 08:51:58;;;;;;;2.80;1.00;;;19.40;99.90;;;;;;4825706;29;20057;-70
2022/09/13 08:54:24;;;;;;;2.95;1.00;;;19.20;99.90;;;;;;4829152;29;20486;-70
2022/09/13 08:56:54;;;;;;;3.10;0.93;;;19.10;99.90;;;;;;4826209;29;20061;-71
2022/09/13 08:59:50;;;;;;;4.00;0.95;;;19.00;99.90;;;;;;4840661;29;20081;-69
2022/09/13 09:02:40;;;;;;;3.20;1.35;;;18.90;99.90;;;;;;4841372;29;20057;-68
2022/09/13 09:05:22;;;;;;;2.33;0.93;;;19.10;99.90;;;;;;4824244;29;20440;-70
2022/09/13 09:08:03;;;;;;;;;;;19.20;99.90;;;;;;4842707;29;20046;-70
2022/09/13 09:10:41;;;;;;;4.50;0.98;;;19.40;99.90;;;;;;4840921;29;19975;-70
2022/09/13 09:13:24;;;;;;;1.40;0.88;;;19.70;99.90;;;;;;4824731;29;20060;-70
2022/09/13 09:15:55;;;;;;;1.80;0.60;;;19.80;99.90;;;;;;4823681;29;20547;-70
2022/09/13 09:18:30;;;;;;;3.33;0.90;;;19.80;99.90;;;;;;4845388;29;20045;-70
2022/09/13 09:20:58;;;;;;;6.47;1.05;;;19.80;99.90;;;;;;4841822;29;20050;-70
2022/09/13 09:23:50;;;;;;;3.13;0.80;;;19.80;99.90;;;;;;4825073;29;20451;-70
2022/09/13 09:26:17;;;;;;;2.25;0.70;;;19.70;99.90;;;;;;4825321;29;20034;-70
2022/09/13 09:28:49;;;;;;;2.45;0.70;;;19.60;99.90;;;;;;4841101;29;20117;-70
2022/09/13 09:31:24;;;;;;;1.58;0.75;;;19.60;99.90;;;;;;4824535;29;20049;-70
2022/09/13 09:34:09;;;;;;;4.75;1.05;;;19.70;99.90;;;;;;4840789;29;20086;-70
2022/09/13 09:36:48;;;;;;;1.40;0.60;;;19.80;99.90;;;;;;4826528;29;20344;-69
2022/09/13 09:39:15;;;;;;;2.28;0.65;;;20.00;99.90;;;;;;4828723;29;20393;-69
2022/09/13 09:41:42;;;;;;;2.05;0.80;;;20.00;99.90;;;;;;4828149;29;20062;-70
2022/09/13 09:44:12;;;;;;;3.08;0.77;;;20.00;99.90;;;;;;4844101;29;20108;-70
2022/09/13 09:46:40;;;;;;;4.80;1.00;;;20.10;99.90;;;;;;4843783;29;20137;-69
2022/09/13 09:52:16;;;;;;;1.20;0.52;;;20.20;99.90;;;;;;4841987;29;20129;-68
2022/09/13 09:54:42;;;;;;;6.78;0.82;;;20.10;99.90;;;;;;4827581;29;20037;-68
2022/09/13 09:57:07;;;;;;;3.30;1.00;;;20.10;99.90;;;;;;4844071;29;20037;-68
2022/09/13 09:59:34;;;;;;;4.80;0.70;;;20.10;99.90;;;;;;4826851;29;20046;-68
2022/09/13 10:02:13;;;;;;;1.30;0.60;;;20.20;99.90;;;;;;4845207;29;20045;-69
2022/09/13 10:04:39;;;;;;;1.00;0.60;;;20.30;99.90;;;;;;4843951;29;20129;-70
2022/09/13 10:07:26;;;;;;;2.58;0.82;;;20.40;99.90;;;;;;4843222;29;20141;-70
2022/09/13 10:10:03;;;;;;;2.20;0.70;;;20.50;99.90;;;;;;4842763;29;20048;-71
2022/09/13 10:12:33;;;;;;;4.20;0.75;;;20.60;99.90;;;;;;4843544;29;20049;-70
2022/09/13 10:15:19;;;;;;;2.13;0.70;;;20.80;99.90;;;;;;4836183;29;20041;-70
2022/09/13 10:18:15;;;;;;;3.22;0.63;;;20.90;99.90;;;;;;4840831;29;20776;-70
2022/09/13 10:20:41;;;;;;;2.28;0.55;;;20.90;99.90;;;;;;4842100;29;20491;-70
2022/09/13 10:23:13;;;;;;;2.45;0.70;;;20.90;99.90;;;;;;4839868;29;20487;-70
2022/09/13 10:25:41;;;;;;;3.50;0.70;;;20.80;99.90;;;;;;4842027;29;20117;-70
2022/09/13 10:28:14;;;;;;;1.77;0.77;;;20.80;99.90;;;;;;4826171;29;20084;-70
2022/09/13 10:30:45;;;;;;;1.70;0.88;;;20.90;99.90;;;;;;4840365;29;20057;-70
2022/09/13 10:33:35;;;;;;;2.35;0.75;;;21.10;99.90;;;;;;4824731;29;20057;-70
2022/09/13 10:36:14;;;;;;;3.40;0.70;;;21.20;99.90;;;;;;4825399;29;20084;-69
2022/09/13 10:38:46;;;;;;;3.30;0.65;;;21.10;99.90;;;;;;4842044;29;20360;-70
2022/09/13 10:41:22;;;;;;;3.25;1.05;;;21.00;99.90;;;;;;4836264;29;20077;-70
2022/09/13 10:44:00;;;;;;;1.98;0.82;;;20.90;99.90;;;;;;4830074;29;20037;-70
2022/09/13 10:46:29;;;;;;;4.95;0.80;;;20.70;99.90;;;;;;4845152;29;20050;-70
2022/09/13 10:48:55;;;;;;;3.10;0.60;;;20.80;99.90;;;;;;4834949;29;20095;-70
2022/09/13 10:51:26;;;;;;;1.52;0.50;;;20.80;99.90;;;;;;4826099;29;20046;-70
2022/09/13 10:54:17;;;;;;;4.38;0.93;;;20.90;99.90;;;;;;4840942;29;20060;-70
2022/09/13 10:56:42;;;;;;;2.25;0.80;;;21.00;99.90;;;;;;4841998;29;20081;-70
2022/09/13 10:59:23;;;;;;;5.00;0.70;;;21.10;99.90;;;;;;4825578;29;20084;-69
2022/09/13 11:01:58;;;;;;;3.40;0.70;;;21.00;99.90;;;;;;4841841;29;20050;-70
2022/09/13 11:04:46;;;;;;;4.65;0.80;;;21.00;99.90;;;;;;4843643;29;20100;-69
2022/09/13 11:07:24;;;;;;;2.47;0.75;;;20.90;99.90;;;;;;4842892;29;20060;-69
2022/09/13 11:10:17;;;;;;;1.30;0.65;;;20.80;99.90;;;;;;4839963;29;20121;-69
2022/09/13 11:13:07;;;;;;;2.15;0.70;;;20.90;99.90;;;;;;4825775;29;20064;-70
2022/09/13 11:15:53;;;;;;;2.30;0.60;;;21.00;99.90;;;;;;4842461;29;20042;-70
2022/09/13 11:18:46;;;;;;;2.80;0.55;;;21.10;99.90;;;;;;4842135;29;20058;-70
2022/09/13 11:21:52;;;;;;;2.45;0.55;;;21.10;99.90;;;;;;4826152;29;20053;-69
2022/09/13 11:24:44;;;;;;;2.10;0.60;;;21.10;99.90;;;;;;4835179;29;20449;-69
2022/09/13 11:27:29;;;;;;;3.17;0.60;;;21.20;99.90;;;;;;4838927;29;20483;-70
2022/09/13 11:30:03;;;;;;;3.13;0.90;;;21.40;99.90;;;;;;4840796;29;20049;-68
2022/09/13 11:32:29;;;;;;;4.00;0.82;;;21.40;99.90;;;;;;4841387;29;20037;-69
2022/09/13 11:35:21;;;;;;;3.40;0.70;;;21.30;99.90;;;;;;4843199;29;20098;-69
2022/09/13 11:37:59;;;;;;;3.03;0.70;;;21.30;99.90;;;;;;4842520;29;20050;-69
2022/09/13 11:40:38;;;;;;;2.28;0.70;;;21.30;99.90;;;;;;4843043;29;20053;-70
2022/09/13 11:43:16;;;;;;;2.88;0.57;;;21.30;99.90;;;;;;4841016;29;20057;-69
2022/09/13 11:45:53;;;;;;;3.70;0.98;;;21.30;99.90;;;;;;4841324;29;20050;-69
2022/09/13 11:49:00;;;;;;;5.18;1.02;;;21.30;99.90;;;;;;4842138;29;20384;-69
2022/09/13 11:52:05;;;;;;;3.00;1.10;;;21.40;99.90;;;;;;4838986;29;20049;-69
2022/09/13 11:54:54;;;;;;;5.93;1.17;;;21.40;98.50;;;;;;4829450;29;20460;-69
2022/09/13 11:57:28;;;;;;;2.67;0.80;;;21.40;99.90;;;;;;4832469;29;20128;-69
2022/09/13 12:00:14;;;;;;;3.45;0.73;;;21.50;99.90;;;;;;4842239;29;20068;-69
2022/09/13 12:03:04;;;;;;;3.60;0.70;;;21.40;99.90;;;;;;4842288;29;20516;-69
2022/09/13 12:05:35;;;;;;;3.40;1.15;;;21.40;99.90;;;;;;4841906;29;20046;-69
2022/09/13 12:08:09;;;;;;;3.45;0.73;;;21.50;99.90;;;;;;4841287;29;20089;-68
2022/09/13 12:11:01;;;;;;;3.20;0.43;;;21.60;99.90;;;;;;4811080;29;20132;-69
2022/09/13 12:13:35;;;;;;;2.90;1.25;;;21.70;99.90;;;;;;4842411;29;20146;-68
2022/09/13 12:16:08;;;;;;;4.43;0.93;;;21.70;99.90;;;;;;4842567;29;20094;-68
2022/09/13 12:18:41;;;;;;;4.20;0.80;;;21.50;99.90;;;;;;4842508;29;20081;-69
2022/09/13 12:21:11;;;;;;;4.50;0.75;;;21.40;99.90;;;;;;4825517;29;20111;-69
2022/09/13 12:24:04;;;;;;;2.65;0.93;;;21.40;99.90;;;;;;4841946;29;20117;-69
2022/09/13 12:27:01;;;;;;;3.60;1.00;;;21.40;99.90;;;;;;4840289;29;20390;-68
2022/09/13 12:29:43;;;;;;;3.72;0.82;;;21.40;99.90;;;;;;4841511;29;20061;-69
2022/09/13 12:32:09;;;;;;;4.97;1.10;;;21.40;99.90;;;;;;4841284;29;20046;-69
2022/09/13 12:34:44;;;;;;;3.78;0.77;;;21.50;99.90;;;;;;4824548;29;20042;-69
2022/09/13 12:37:15;;;;;;;3.03;0.68;;;21.60;99.90;;;;;;4821844;29;20050;-69
2022/09/13 12:39:59;;;;;;;3.15;1.00;;;21.60;99.90;;;;;;4841385;29;20052;-68
2022/09/13 12:42:32;;;;;;;5.03;1.02;;;21.50;99.90;;;;;;4840223;29;20077;-68
2022/09/13 12:45:27;;;;;;;3.25;0.90;;;21.60;99.90;;;;;;4841608;29;20049;-70
2022/09/13 12:48:19;;;;;;;3.55;0.90;;;21.60;93.60;;;;;;4839353;29;20396;-68
2022/09/13 12:51:16;;;;;;;4.20;0.80;;;21.70;97.00;;;;;;4841074;29;20136;-68
2022/09/13 12:53:50;;;;;;;3.40;0.75;;;21.70;97.00;;;;;;4840355;29;20090;-69
2022/09/13 12:56:41;;;;;;;3.53;0.82;;;21.80;99.50;;;;;;4839367;29;20046;-69
2022/09/13 12:59:28;;;;;;;4.10;0.70;;;21.90;98.50;;;;;;4841255;29;20125;-68
2022/09/13 13:01:54;;;;;;;1.65;0.60;;;21.90;96.20;;;;;;4839080;29;20049;-68
2022/09/13 13:04:31;;;;;;;4.50;0.80;;;21.90;98.70;;;;;;4841556;29;20065;-68
2022/09/13 13:07:02;;;;;;;2.50;0.98;;;21.80;96.40;;;;;;4823026;29;20149;-68
2022/09/13 13:09:33;;;;;;;6.03;0.97;;;21.80;96.40;;;;;;4825013;29;20060;-68
2022/09/13 13:11:59;;;;;;;3.50;0.55;;;21.80;99.60;;;;;;4843700;29;20159;-68
2022/09/13 13:14:37;;;;;;;2.45;0.70;;;21.90;99.90;;;;;;4828327;29;20227;-68
2022/09/13 13:17:37;;;;;;;3.20;0.90;;;21.90;98.80;;;;;;4844168;29;20050;-68
2022/09/13 13:20:43;;;;;;;2.78;0.73;;;21.80;90.20;;;;;;4826709;29;20042;-67
2022/09/13 13:23:23;;;;;;;5.30;0.70;;;21.90;94.10;;;;;;4844280;29;20483;-67
2022/09/13 13:25:57;;;;;;;2.67;0.65;;;21.90;96.30;;;;;;4844887;29;20045;-67
2022/09/13 13:28:45;;;;;;;2.72;0.68;;;21.90;93.70;;;;;;4844385;29;20053;-67
2022/09/13 13:31:32;;;;;;;3.10;0.50;;;22.00;95.20;;;;;;4845013;29;20368;-67
2022/09/13 13:34:02;;;;;;;3.75;0.98;;;22.10;95.60;;;;;;4827882;29;20514;-68
2022/09/13 13:36:32;;;;;;;3.78;0.85;;;22.10;93.90;;;;;;4844005;29;20128;-68
2022/09/13 13:39:00;;;;;;;3.08;0.88;;;22.10;96.90;;;;;;4844593;29;20192;-68
2022/09/13 13:41:31;;;;;;;3.20;0.73;;;22.00;96.60;;;;;;4842928;29;20046;-68
2022/09/13 13:43:57;;;;;;;3.97;0.90;;;22.00;93.00;;;;;;4843975;29;20053;-69
2022/09/13 13:46:30;;;;;;;2.40;0.65;;;22.00;96.40;;;;;;4844450;29;20391;-69
2022/09/13 13:49:16;;;;;;;5.05;0.73;;;22.10;94.80;;;;;;4845041;29;20042;-69
2022/09/13 13:51:42;;;;;;;4.13;0.70;;;22.00;96.20;;;;;;4827714;29;20042;-69
2022/09/13 13:54:27;;;;;;;5.10;0.93;;;21.90;96.00;;;;;;4828629;29;20190;-69
2022/09/13 13:56:54;;;;;;;2.40;0.85;;;21.90;91.10;;;;;;4844721;29;20094;-69
2022/09/13 13:59:30;;;;;;;3.20;0.75;;;21.90;98.20;;;;;;4843890;29;20495;-69
2022/09/13 14:02:00;;;;;;;5.13;0.90;;;21.90;94.30;;;;;;4844362;29;20045;-69
2022/09/13 14:04:48;;;;;;;3.70;0.80;;;22.00;97.70;;;;;;4827249;29;20074;-69
2022/09/13 14:07:42;;;;;;;4.05;0.70;;;22.10;95.40;;;;;;4856694;29;20057;-69
2022/09/13 14:10:19;;;;;;;2.63;0.80;;;22.00;94.20;;;;;;4862728;29;20432;-69
2022/09/13 14:13:07;;;;;;;1.77;0.68;;;22.00;95.10;;;;;;4850636;29;20114;-69
2022/09/13 14:15:59;;;;;;;3.60;0.60;;;21.90;93.00;;;;;;4818474;29;20053;-69
2022/09/13 14:18:51;;;;;;;4.40;0.80;;;21.80;91.70;;;;;;4860704;29;20060;-70